Time;durP1;ratioP1;P1;durP2;ratioP2;P2;SDS_P1;SDS_P2;PMS_P1;PMS_P2;Temp;Humidity;BMP_temperature;BMP_pressure;BME280_temperature;BME280_humidity;BME280_pressure;Samples;Min_cycle;Max_cycle;Signal;HPM_P1;HPM_P2
2022/08/27 00:01:32;;;;;;;4.78;1.30;;;;;;;17.39;63.10;101625.38;5004071;28;20052;-77
2022/08/27 00:03:57;;;;;;;2.80;1.23;;;;;;;17.34;63.14;101627.34;5006654;28;20029;-77
2022/08/27 00:06:24;;;;;;;5.10;1.23;;;;;;;17.28;62.95;101626.69;5000673;28;20037;-77
2022/08/27 00:08:50;;;;;;;4.32;1.58;;;;;;;17.24;62.96;101622.47;5002933;28;20492;-77
2022/08/27 00:11:17;;;;;;;3.97;1.33;;;;;;;17.21;63.18;101612.09;5001151;28;20030;-77
2022/08/27 00:13:43;;;;;;;3.28;1.15;;;;;;;17.21;63.64;101616.50;5008373;28;20029;-77
2022/08/27 00:16:10;;;;;;;3.58;1.20;;;;;;;17.16;63.36;101607.94;5004654;28;20084;-77
2022/08/27 00:18:38;;;;;;;2.88;1.08;;;;;;;17.06;64.05;101603.06;5008972;28;20124;-77
2022/08/27 00:21:04;;;;;;;2.42;1.10;;;;;;;17.01;63.87;101609.41;4988840;28;20029;-78
2022/08/27 00:23:30;;;;;;;5.63;1.40;;;;;;;16.97;64.25;101603.44;5005935;28;20029;-77
2022/08/27 00:25:56;;;;;;;2.80;1.20;;;;;;;16.90;64.12;101605.41;5010988;28;20084;-77
2022/08/27 00:28:21;;;;;;;4.40;1.55;;;;;;;16.86;64.77;101601.19;5006358;28;20037;-77
2022/08/27 00:30:47;;;;;;;1.83;1.23;;;;;;;16.80;65.40;101604.94;5004545;28;20049;-77
2022/08/27 00:33:12;;;;;;;4.07;1.20;;;;;;;16.74;65.60;101604.31;5005300;28;20034;-77
2022/08/27 00:35:38;;;;;;;4.30;1.30;;;;;;;16.70;65.63;101606.22;5003059;28;20042;-77
2022/08/27 00:38:05;;;;;;;5.38;1.55;;;;;;;16.65;65.61;101610.78;5004339;28;20081;-77
2022/08/27 00:40:32;;;;;;;4.30;1.70;;;;;;;16.64;66.05;101611.72;5003645;28;20030;-77
2022/08/27 00:42:58;;;;;;;3.83;1.30;;;;;;;16.60;66.25;101604.84;5001335;28;20453;-77
2022/08/27 00:45:24;;;;;;;2.75;1.27;;;;;;;16.54;66.39;101608.56;5002473;28;20164;-77
2022/08/27 00:47:53;;;;;;;3.90;1.45;;;;;;;16.49;66.09;101616.66;5002214;28;20676;-77
2022/08/27 00:50:32;;;;;;;4.03;1.48;;;;;;;16.44;65.82;101623.00;5002849;28;20026;-77
2022/08/27 00:53:01;;;;;;;2.88;1.50;;;;;;;16.38;66.99;101617.06;5002425;28;20037;-77
2022/08/27 00:55:32;;;;;;;4.53;1.67;;;;;;;16.37;66.65;101614.50;4999912;28;20037;-77
2022/08/27 00:58:13;;;;;;;4.50;1.77;;;;;;;16.34;66.27;101609.34;5001048;28;20144;-77
2022/08/27 01:00:38;;;;;;;3.80;1.50;;;;;;;16.29;66.95;101616.53;5001361;28;20817;-77
2022/08/27 01:03:04;;;;;;;4.30;1.45;;;;;;;16.24;66.89;101612.31;5000931;28;20030;-77
2022/08/27 01:05:32;;;;;;;4.20;1.80;;;;;;;16.22;67.51;101615.91;4999418;28;20033;-77
2022/08/27 01:08:03;;;;;;;3.97;1.85;;;;;;;16.20;67.67;101615.09;5002024;28;20125;-77
2022/08/27 01:10:29;;;;;;;5.70;1.70;;;;;;;16.20;67.45;101615.97;5000265;28;20086;-77
2022/08/27 01:12:55;;;;;;;5.00;1.55;;;;;;;16.18;67.24;101604.69;5000800;28;20384;-77
2022/08/27 01:15:23;;;;;;;2.85;1.50;;;;;;;16.15;67.45;101610.03;4998149;28;20033;-77
2022/08/27 01:17:49;;;;;;;3.97;1.88;;;;;;;16.12;67.79;101611.94;5003876;28;20459;-77
2022/08/27 01:20:22;;;;;;;4.10;1.65;;;;;;;16.11;67.89;101613.69;4999181;28;20034;-77
2022/08/27 01:23:15;;;;;;;3.15;1.63;;;;;;;16.11;67.25;101613.69;5005341;28;20458;-78
2022/08/27 01:25:42;;;;;;;4.35;2.03;;;;;;;16.03;68.22;101610.50;4981374;28;20034;-77
2022/08/27 01:28:08;;;;;;;2.92;1.73;;;;;;;15.96;68.50;101609.88;5001340;28;20044;-78
2022/08/27 01:30:35;;;;;;;2.60;1.70;;;;;;;15.92;69.04;101610.88;5000703;28;20061;-78
2022/08/27 01:33:07;;;;;;;3.35;1.67;;;;;;;15.86;68.80;101608.47;5003619;28;20030;-78
2022/08/27 01:35:33;;;;;;;4.38;1.70;;;;;;;15.82;69.18;101602.44;5003344;28;20084;-78
2022/08/27 01:37:58;;;;;;;4.35;1.95;;;;;;;15.80;69.41;101600.78;5006379;28;20022;-77
2022/08/27 01:40:23;;;;;;;2.92;1.80;;;;;;;15.76;69.74;101603.53;5001385;28;20064;-78
2022/08/27 01:42:50;;;;;;;4.20;1.85;;;;;;;15.72;70.20;101607.16;5005642;28;20105;-77
2022/08/27 01:45:28;;;;;;;4.07;1.77;;;;;;;15.69;69.91;101609.88;5002486;28;20039;-78
2022/08/27 01:47:54;;;;;;;3.28;1.50;;;;;;;15.67;70.23;101603.81;5003305;28;20551;-77
2022/08/27 01:50:24;;;;;;;3.30;1.80;;;;;;;15.67;70.24;101603.00;4998919;28;20079;-77
2022/08/27 01:52:51;;;;;;;4.40;1.63;;;;;;;15.66;70.27;101607.38;5004223;28;20103;-78
2022/08/27 01:55:21;;;;;;;4.20;1.80;;;;;;;15.66;70.35;101603.91;5005022;28;20033;-78
2022/08/27 01:57:46;;;;;;;5.15;1.70;;;;;;;15.65;71.06;101599.56;5008788;28;20512;-78
2022/08/27 02:00:17;;;;;;;3.67;1.58;;;;;;;15.63;70.56;101597.84;5001033;28;20034;-77
2022/08/27 02:02:43;;;;;;;4.72;1.70;;;;;;;15.61;70.34;101599.66;5002098;28;20945;-77
2022/08/27 02:05:09;;;;;;;3.45;1.88;;;;;;;15.59;70.59;101601.47;5004540;28;20105;-77
2022/08/27 02:07:36;;;;;;;5.53;1.92;;;;;;;15.55;70.60;101597.25;5004407;28;20054;-77
2022/08/27 02:10:02;;;;;;;4.38;2.22;;;;;;;15.52;70.80;101591.25;5002365;28;20469;-78
2022/08/27 02:12:27;;;;;;;4.43;1.83;;;;;;;15.50;70.69;101590.44;5002409;28;20029;-78
2022/08/27 02:14:52;;;;;;;3.50;2.00;;;;;;;15.45;71.13;101590.59;5006586;28;20021;-77
2022/08/27 02:17:18;;;;;;;3.95;2.10;;;;;;;15.44;71.34;101589.78;5000936;28;20368;-77
2022/08/27 02:19:44;;;;;;;3.33;2.10;;;;;;;15.41;71.33;101583.75;5002991;28;20030;-77
2022/08/27 02:22:09;;;;;;;4.70;2.00;;;;;;;15.40;71.31;101585.53;5005888;28;20101;-77
2022/08/27 02:24:34;;;;;;;3.40;2.00;;;;;;;15.39;71.30;101581.19;5002503;28;20169;-77
2022/08/27 02:27:00;;;;;;;3.80;2.00;;;;;;;15.36;71.41;101583.91;5006160;28;20038;-77
2022/08/27 02:29:25;;;;;;;4.38;2.17;;;;;;;15.29;71.36;101580.66;5005406;28;20029;-77
2022/08/27 02:31:50;;;;;;;5.95;2.30;;;;;;;15.23;71.86;101575.59;5000524;28;20025;-77
2022/08/27 02:34:17;;;;;;;4.13;2.40;;;;;;;15.14;72.07;101573.31;4998950;28;20509;-78
2022/08/27 02:36:42;;;;;;;4.65;2.08;;;;;;;15.09;72.58;101575.22;5003860;28;20390;-78
2022/08/27 02:39:08;;;;;;;3.80;2.15;;;;;;;15.07;72.21;101579.63;5005938;28;20044;-77
2022/08/27 02:41:33;;;;;;;8.48;2.53;;;;;;;15.03;72.28;101581.50;5002111;28;20109;-77
2022/08/27 02:44:00;;;;;;;4.95;2.22;;;;;;;15.01;72.59;101578.94;5002083;28;20058;-77
2022/08/27 02:46:25;;;;;;;4.63;2.47;;;;;;;15.01;72.48;101578.94;5004879;28;20556;-77
2022/08/27 02:48:50;;;;;;;4.80;2.40;;;;;;;15.02;72.56;101580.66;5005759;28;20117;-77
2022/08/27 02:51:16;;;;;;;7.50;2.35;;;;;;;15.03;72.66;101586.75;5002394;28;20030;-77
2022/08/27 02:53:42;;;;;;;3.92;2.13;;;;;;;15.01;72.54;101573.72;5004862;28;20384;-78
2022/08/27 02:56:09;;;;;;;3.70;2.25;;;;;;;14.99;72.96;101580.75;5000600;28;20072;-78
2022/08/27 02:58:34;;;;;;;7.80;2.38;;;;;;;14.98;73.63;101583.41;4999770;28;20053;-77
2022/08/27 03:01:01;;;;;;;3.45;2.20;;;;;;;14.99;72.90;101583.38;4999599;28;20065;-78
2022/08/27 03:03:28;;;;;;;6.05;2.33;;;;;;;14.98;73.05;101578.16;5005907;28;20026;-77
2022/08/27 03:05:54;;;;;;;6.38;2.75;;;;;;;14.95;73.38;101578.25;5003234;28;20061;-77
2022/08/27 03:08:19;;;;;;;5.90;2.65;;;;;;;14.96;73.22;101582.59;5002156;28;20080;-77
2022/08/27 03:10:44;;;;;;;4.82;2.30;;;;;;;14.94;73.47;101579.19;5002489;28;20776;-77
2022/08/27 03:13:10;;;;;;;3.60;2.30;;;;;;;14.92;73.46;101588.88;5003417;28;20060;-77
2022/08/27 03:15:35;;;;;;;5.97;2.45;;;;;;;14.91;73.95;101580.13;4998790;28;20333;-78
2022/08/27 03:18:18;;;;;;;5.07;2.47;;;;;;;14.92;73.80;101584.47;5004353;28;20116;-78
2022/08/27 03:20:52;;;;;;;3.90;2.20;;;;;;;14.93;73.75;101575.72;5001500;28;20029;-77
2022/08/27 03:23:21;;;;;;;4.78;2.38;;;;;;;14.96;74.01;101577.38;4985410;28;20026;-77
2022/08/27 03:25:50;;;;;;;4.05;2.33;;;;;;;14.95;73.70;101573.91;5002231;28;20121;-78
2022/08/27 03:28:17;;;;;;;3.97;2.40;;;;;;;14.94;73.80;101574.81;5003591;28;20037;-78
2022/08/27 03:30:46;;;;;;;3.88;2.65;;;;;;;14.92;74.23;101581.84;5001249;28;20061;-77
2022/08/27 03:33:11;;;;;;;5.07;2.60;;;;;;;14.94;74.52;101581.81;5004158;28;20025;-77
2022/08/27 03:35:36;;;;;;;4.97;2.63;;;;;;;14.97;74.40;101582.56;4998514;28;20026;-77
2022/08/27 03:38:02;;;;;;;4.65;2.45;;;;;;;15.00;74.21;101585.09;5004003;28;20084;-78
2022/08/27 03:40:28;;;;;;;4.45;2.63;;;;;;;15.01;74.57;101592.06;4998972;28;20025;-77
2022/08/27 03:42:53;;;;;;;4.60;2.40;;;;;;;15.03;74.30;101592.84;5000221;28;20112;-77
2022/08/27 03:45:18;;;;;;;5.00;2.45;;;;;;;15.05;74.10;101590.19;5001956;28;20076;-77
2022/08/27 03:47:44;;;;;;;7.10;2.95;;;;;;;15.06;74.12;101588.41;4997835;28;20038;-77
2022/08/27 03:50:10;;;;;;;6.32;2.47;;;;;;;15.05;74.16;101589.31;5002460;28;20434;-77
2022/08/27 03:52:36;;;;;;;6.20;2.53;;;;;;;15.05;74.54;101584.06;5001415;28;20037;-77
2022/08/27 03:55:04;;;;;;;4.07;2.38;;;;;;;15.06;74.40;101591.91;4999735;28;20052;-78
2022/08/27 03:57:30;;;;;;;3.90;2.33;;;;;;;15.05;74.42;101584.06;5002312;28;20029;-77
2022/08/27 03:59:55;;;;;;;5.90;2.50;;;;;;;15.03;74.81;101587.59;5005162;28;20026;-77
2022/08/27 04:02:21;;;;;;;4.50;2.70;;;;;;;15.06;74.74;101588.41;4999291;28;20032;-77
2022/08/27 04:04:46;;;;;;;5.85;2.70;;;;;;;15.04;74.82;101593.72;4998289;28;20037;-77
2022/08/27 04:07:12;;;;;;;5.60;2.90;;;;;;;15.01;74.77;101584.19;4999096;28;20501;-78
2022/08/27 04:09:37;;;;;;;6.22;2.63;;;;;;;14.99;75.01;101586.00;5002322;28;20030;-77
2022/08/27 04:12:02;;;;;;;4.68;2.63;;;;;;;15.00;74.79;101582.47;5001189;28;20029;-77
2022/08/27 04:14:27;;;;;;;6.05;2.38;;;;;;;14.99;74.75;101588.63;5000597;28;20048;-78
2022/08/27 04:16:55;;;;;;;8.13;2.72;;;;;;;14.99;74.85;101586.00;4981159;28;20026;-77
2022/08/27 04:19:21;;;;;;;7.43;2.92;;;;;;;14.98;75.08;101584.28;5002039;28;20572;-77
2022/08/27 04:21:46;;;;;;;5.22;2.85;;;;;;;14.97;75.11;101585.19;4997438;28;20029;-77
2022/08/27 04:24:11;;;;;;;6.35;2.85;;;;;;;14.95;75.62;101579.13;5001704;28;20088;-77
2022/08/27 04:26:39;;;;;;;4.70;2.95;;;;;;;14.93;75.54;101590.59;5002772;28;20064;-77
2022/08/27 04:29:05;;;;;;;5.60;3.00;;;;;;;14.88;75.65;101582.84;4998905;28;20154;-77
2022/08/27 04:31:30;;;;;;;4.90;2.92;;;;;;;14.88;76.01;101588.09;4997449;28;20117;-77
2022/08/27 04:33:56;;;;;;;6.00;2.90;;;;;;;14.87;75.91;101587.25;5000797;28;20095;-77
2022/08/27 04:36:21;;;;;;;5.68;3.15;;;;;;;14.89;76.17;101586.34;4998833;28;20042;-77
2022/08/27 04:38:47;;;;;;;5.03;2.90;;;;;;;14.88;76.25;101588.09;5000451;28;20118;-77
2022/08/27 04:41:19;;;;;;;4.75;3.10;;;;;;;14.88;76.53;101590.72;5001582;28;20034;-77
2022/08/27 04:43:50;;;;;;;5.65;2.95;;;;;;;14.91;76.77;101593.25;5002574;28;20456;-77
2022/08/27 04:46:21;;;;;;;5.47;3.22;;;;;;;14.92;76.69;101594.94;4999407;28;20108;-77
2022/08/27 04:48:47;;;;;;;5.90;3.08;;;;;;;14.94;76.88;101598.38;5001066;28;20040;-77
2022/08/27 04:51:12;;;;;;;6.50;3.10;;;;;;;14.95;77.03;101602.72;5000708;28;20098;-77
2022/08/27 04:53:37;;;;;;;6.13;3.47;;;;;;;14.97;77.05;101603.53;5005066;28;20041;-77
2022/08/27 04:56:03;;;;;;;5.57;3.17;;;;;;;15.00;77.08;101592.09;5004382;28;20377;-77
2022/08/27 04:58:29;;;;;;;5.15;3.45;;;;;;;15.00;77.21;101597.31;5002486;28;20113;-77
2022/08/27 05:00:58;;;;;;;7.18;3.25;;;;;;;14.99;77.30;101599.09;4999218;28;20528;-78
2022/08/27 05:03:24;;;;;;;5.15;3.30;;;;;;;14.99;77.54;101606.97;5001568;28;20116;-77
2022/08/27 05:05:51;;;;;;;7.05;3.65;;;;;;;15.00;77.40;101600.81;5005698;28;20029;-77
2022/08/27 05:08:17;;;;;;;7.00;3.65;;;;;;;15.00;77.48;101600.81;5008253;28;20163;-77
2022/08/27 05:10:48;;;;;;;5.50;3.42;;;;;;;15.01;77.21;101607.78;5004596;28;20034;-77
2022/08/27 05:13:14;;;;;;;5.47;3.55;;;;;;;15.02;77.10;101609.50;5007694;28;20491;-77
2022/08/27 05:15:40;;;;;;;13.23;3.50;;;;;;;15.01;77.44;101607.78;5008805;28;20052;-77
2022/08/27 05:18:07;;;;;;;9.88;3.30;;;;;;;15.00;77.34;101603.44;5005149;28;20064;-77
2022/08/27 05:20:33;;;;;;;10.48;3.85;;;;;;;14.99;77.55;101601.72;5003464;28;20034;-77
2022/08/27 05:22:58;;;;;;;9.18;3.53;;;;;;;15.01;77.77;101602.53;5006408;28;20100;-77
2022/08/27 05:25:25;;;;;;;7.90;3.40;;;;;;;15.02;78.01;101606.00;5004081;28;20121;-77
2022/08/27 05:27:50;;;;;;;5.80;3.72;;;;;;;15.03;77.97;101607.72;5003664;28;20068;-77
2022/08/27 05:30:16;;;;;;;8.02;3.67;;;;;;;15.06;77.98;101607.63;5000586;28;20076;-77
2022/08/27 05:32:42;;;;;;;5.68;3.60;;;;;;;15.11;77.90;101610.09;5005206;28;20072;-77
2022/08/27 05:35:08;;;;;;;7.20;3.50;;;;;;;15.15;78.17;101603.84;5005213;28;20025;-77
2022/08/27 05:37:34;;;;;;;21.58;4.13;;;;;;;15.20;78.14;101615.00;5005535;28;20045;-77
2022/08/27 05:39:59;;;;;;;11.25;3.63;;;;;;;15.26;78.19;101613.97;5004880;28;20706;-77
2022/08/27 05:42:25;;;;;;;5.75;3.80;;;;;;;15.30;78.08;101610.31;5005583;28;20035;-77
2022/08/27 05:44:51;;;;;;;9.20;3.95;;;;;;;15.32;77.86;101609.38;5003497;28;20038;-77
2022/08/27 05:47:17;;;;;;;8.70;3.70;;;;;;;15.36;78.18;101604.88;5001905;28;20123;-78
2022/08/27 05:49:42;;;;;;;6.53;3.58;;;;;;;15.40;77.74;101606.50;5003244;28;20515;-78
2022/08/27 05:52:10;;;;;;;7.22;3.78;;;;;;;15.44;78.34;101605.50;5001984;28;20026;-78
2022/08/27 05:54:35;;;;;;;19.15;4.22;;;;;;;15.51;78.37;101608.78;5003902;28;20117;-78
2022/08/27 05:57:00;;;;;;;9.80;3.97;;;;;;;15.55;77.78;101612.97;5011250;28;20541;-78
2022/08/27 06:02:10;;;;;;;8.15;3.70;;;;;;;15.66;77.65;101611.75;5003879;28;20143;-78
2022/08/27 06:04:35;;;;;;;6.53;3.92;;;;;;;15.71;77.92;101618.56;5000812;28;20037;-77
2022/08/27 06:07:01;;;;;;;6.80;3.97;;;;;;;15.75;77.51;101616.69;5002270;28;20109;-77
2022/08/27 06:09:28;;;;;;;7.78;3.80;;;;;;;15.80;76.64;101617.38;5003315;28;20052;-77
2022/08/27 06:11:54;;;;;;;7.45;4.10;;;;;;;15.82;76.58;101612.94;5005611;28;20030;-78
2022/08/27 06:14:19;;;;;;;6.22;3.80;;;;;;;15.84;76.02;101621.63;4999173;28;20069;-78
2022/08/27 06:16:45;;;;;;;8.40;3.60;;;;;;;15.88;75.84;101622.38;5004443;28;20125;-78
2022/08/27 06:19:11;;;;;;;6.72;3.03;;;;;;;15.90;75.73;101620.56;5005337;28;20030;-78
2022/08/27 06:21:36;;;;;;;8.40;3.63;;;;;;;15.94;76.48;101619.56;5004736;28;20030;-79
2022/08/27 06:24:02;;;;;;;6.00;4.00;;;;;;;15.99;76.09;101628.09;5005747;28;20025;-78
2022/08/27 06:26:28;;;;;;;6.40;3.55;;;;;;;16.04;75.75;101622.72;5003561;28;20108;-78
2022/08/27 06:28:54;;;;;;;7.57;3.92;;;;;;;16.09;75.17;101631.25;5002905;28;20030;-78
2022/08/27 06:31:25;;;;;;;6.05;3.72;;;;;;;16.11;75.30;101629.44;5002052;28;20132;-78
2022/08/27 06:33:51;;;;;;;;;;;;;;;16.21;74.80;101625.56;5000022;28;20539;-78
2022/08/27 06:36:22;;;;;;;5.78;3.30;;;;;;;16.22;74.47;101632.53;5002068;28;19932;-78
2022/08/27 06:38:48;;;;;;;6.30;3.28;;;;;;;16.26;74.93;101625.41;5004265;28;20033;-77
2022/08/27 06:41:15;;;;;;;9.43;3.75;;;;;;;16.31;75.18;101630.47;5001555;28;21072;-77
2022/08/27 06:43:41;;;;;;;6.65;3.70;;;;;;;16.35;74.54;101630.28;5002445;28;20033;-77
2022/08/27 06:46:12;;;;;;;6.28;3.50;;;;;;;16.39;74.02;101638.94;5006393;28;20026;-77
2022/08/27 06:48:37;;;;;;;6.47;3.65;;;;;;;16.44;73.43;101631.72;5001714;28;20030;-77
2022/08/27 06:51:08;;;;;;;6.85;3.58;;;;;;;16.46;73.04;101635.13;4999165;28;20119;-77
2022/08/27 06:53:33;;;;;;;6.57;3.40;;;;;;;16.48;73.59;101638.56;4997233;28;20649;-77
2022/08/27 06:55:59;;;;;;;7.32;3.83;;;;;;;16.54;73.31;101640.09;4999718;28;20038;-77
2022/08/27 06:58:25;;;;;;;4.72;3.00;;;;;;;16.57;73.38;101641.78;5004127;28;20100;-77
2022/08/27 07:00:50;;;;;;;6.03;3.25;;;;;;;16.61;73.23;101636.34;5002310;28;20030;-77
2022/08/27 07:03:16;;;;;;;5.72;3.05;;;;;;;16.66;73.14;101636.16;5004604;28;20101;-77
2022/08/27 07:05:41;;;;;;;5.45;2.72;;;;;;;16.71;73.22;101628.09;5004075;28;20438;-77
2022/08/27 07:08:08;;;;;;;8.32;2.80;;;;;;;16.74;71.65;101626.19;4986237;28;20061;-77
2022/08/27 07:10:33;;;;;;;5.65;2.67;;;;;;;16.77;71.21;101622.59;5002851;28;20026;-77
2022/08/27 07:12:59;;;;;;;5.82;2.75;;;;;;;16.80;70.61;101631.22;4994947;28;20033;-78
2022/08/27 07:15:25;;;;;;;5.82;2.90;;;;;;;16.82;70.62;101632.00;5002848;28;20041;-79
2022/08/27 07:17:51;;;;;;;5.40;2.90;;;;;;;16.86;69.49;101632.72;5004090;28;20034;-78
2022/08/27 07:20:17;;;;;;;6.13;2.72;;;;;;;16.88;69.26;101635.31;4999806;28;20038;-78
2022/08/27 07:22:44;;;;;;;5.18;2.50;;;;;;;16.94;69.88;101640.31;5004515;28;20044;-78
2022/08/27 07:25:14;;;;;;;7.80;2.78;;;;;;;16.98;70.06;101634.06;5000186;28;20033;-79
2022/08/27 07:27:40;;;;;;;5.28;2.35;;;;;;;17.02;68.83;101637.41;5003362;28;20038;-79
2022/08/27 07:30:10;;;;;;;8.32;2.60;;;;;;;17.05;69.12;101640.78;4999362;28;20388;-77
2022/08/27 07:32:36;;;;;;;5.85;2.70;;;;;;;17.10;68.25;101636.19;5004354;28;20025;-77
2022/08/27 07:35:02;;;;;;;3.92;2.22;;;;;;;17.14;69.02;101640.41;5000804;28;20084;-77
2022/08/27 07:37:28;;;;;;;5.63;2.50;;;;;;;17.20;68.86;101638.44;5003378;28;20067;-78
2022/08/27 07:39:53;;;;;;;5.30;2.67;;;;;;;17.26;67.58;101639.06;5004675;28;20030;-78
2022/08/27 07:45:02;;;;;;;5.45;2.70;;;;;;;17.37;69.04;101641.25;5005361;28;20084;-78
2022/08/27 07:47:27;;;;;;;5.07;2.20;;;;;;;17.40;66.79;101649.00;5002803;28;20038;-79
2022/08/27 07:49:53;;;;;;;5.25;2.28;;;;;;;17.43;66.37;101643.59;5004368;28;20113;-79
2022/08/27 07:52:18;;;;;;;5.10;2.55;;;;;;;17.46;66.79;101642.63;5008182;28;20034;-79
2022/08/27 07:54:43;;;;;;;4.63;2.50;;;;;;;17.45;67.51;101644.38;5000189;28;20030;-79
2022/08/27 07:57:10;;;;;;;4.90;2.20;;;;;;;17.51;66.90;101645.91;5001462;28;20423;-79
2022/08/27 07:59:35;;;;;;;4.75;1.90;;;;;;;17.54;67.98;101653.69;4999271;28;20044;-77
2022/08/27 08:02:01;;;;;;;4.65;2.40;;;;;;;17.54;65.83;101652.84;5000985;28;20469;-78
2022/08/27 08:04:26;;;;;;;4.72;2.22;;;;;;;17.51;66.76;101651.16;5001216;28;20037;-78
2022/08/27 08:06:52;;;;;;;5.78;2.40;;;;;;;17.49;66.61;101646.91;5003332;28;20080;-79
2022/08/27 08:09:19;;;;;;;6.18;2.67;;;;;;;17.45;66.13;101654.06;4999495;28;20090;-79
2022/08/27 08:11:44;;;;;;;3.95;2.08;;;;;;;17.43;66.93;101654.13;4999361;28;20228;-79
2022/08/27 08:14:09;;;;;;;4.72;1.90;;;;;;;17.43;67.68;101650.66;5000850;28;20761;-78
2022/08/27 08:16:35;;;;;;;4.85;1.92;;;;;;;17.44;66.88;101653.19;4999568;28;20077;-79
2022/08/27 08:19:00;;;;;;;4.18;1.90;;;;;;;17.46;66.02;101645.25;4999075;28;20104;-78
2022/08/27 08:21:26;;;;;;;3.60;1.77;;;;;;;17.53;65.54;101643.22;4999706;28;20035;-78
2022/08/27 08:23:51;;;;;;;6.63;1.67;;;;;;;17.58;65.03;101636.84;5005905;28;20022;-78
2022/08/27 08:26:17;;;;;;;4.68;1.80;;;;;;;17.63;63.82;101634.00;4997305;28;20030;-78
2022/08/27 08:28:42;;;;;;;3.15;1.60;;;;;;;17.73;68.27;101642.38;5000789;28;20064;-78
2022/08/27 08:31:08;;;;;;;4.03;1.70;;;;;;;17.80;65.00;101646.44;5001081;28;20121;-78
2022/08/27 08:33:34;;;;;;;4.07;1.80;;;;;;;17.88;63.31;101648.75;5002318;28;20041;-78
2022/08/27 08:36:05;;;;;;;4.68;1.60;;;;;;;17.97;64.15;101648.34;5004505;28;20100;-78
2022/08/27 08:38:30;;;;;;;4.20;1.52;;;;;;;18.07;61.70;101647.97;5004269;28;20461;-78
2022/08/27 08:40:55;;;;;;;2.42;1.40;;;;;;;18.15;60.05;101651.09;5001463;28;20035;-78
2022/08/27 08:43:37;;;;;;;5.70;3.45;;;;;;;18.24;61.91;101647.19;5008961;28;20033;-78
2022/08/27 08:46:16;;;;;;;7.10;4.15;;;;;;;18.31;62.17;101646.84;5011346;28;20419;-78
2022/08/27 08:48:47;;;;;;;5.45;2.60;;;;;;;18.39;62.65;101648.28;5008946;28;20030;-78
2022/08/27 08:51:24;;;;;;;3.67;1.98;;;;;;;18.46;62.14;101645.31;5007077;28;20518;-78
2022/08/27 08:53:55;;;;;;;3.33;1.73;;;;;;;18.59;62.39;101644.72;5011085;28;20029;-78
2022/08/27 08:56:41;;;;;;;5.13;1.60;;;;;;;18.69;61.28;101639.88;5007048;28;20069;-78
2022/08/27 08:59:21;;;;;;;4.55;1.45;;;;;;;18.75;58.99;101640.44;5012634;28;20479;-78
2022/08/27 09:01:48;;;;;;;3.07;1.40;;;;;;;18.76;57.41;101646.59;5010013;28;20032;-78
2022/08/27 09:04:13;;;;;;;3.40;1.30;;;;;;;18.76;59.33;101651.84;5008035;28;20301;-78
2022/08/27 09:07:08;;;;;;;3.00;1.35;;;;;;;18.83;60.79;101657.69;5004202;28;20060;-78
2022/08/27 09:09:45;;;;;;;3.55;1.48;;;;;;;18.90;56.85;101659.97;5007209;28;20122;-78
2022/08/27 09:12:24;;;;;;;5.25;1.40;;;;;;;18.91;58.70;101656.38;5007321;28;20026;-78
2022/08/27 09:14:52;;;;;;;3.08;1.40;;;;;;;18.98;58.69;101656.97;5004638;28;20582;-78
2022/08/27 09:17:18;;;;;;;2.35;1.23;;;;;;;19.07;57.33;101660.97;5008481;28;20084;-78
2022/08/27 09:19:44;;;;;;;2.80;1.20;;;;;;;19.15;56.98;101657.94;5008748;28;20034;-78
2022/08/27 09:22:34;;;;;;;3.47;1.35;;;;;;;19.24;59.45;101663.63;5004552;28;20038;-78
2022/08/27 09:25:19;;;;;;;3.55;1.40;;;;;;;19.32;57.46;101663.25;5005795;28;20034;-78
2022/08/27 09:27:47;;;;;;;4.53;1.38;;;;;;;19.37;56.25;101660.38;5003044;28;20066;-78
2022/08/27 09:30:19;;;;;;;2.17;1.20;;;;;;;19.47;56.40;101658.97;5005006;28;20552;-78
2022/08/27 09:32:54;;;;;;;3.83;1.08;;;;;;;19.59;55.29;101652.22;5003497;28;20083;-78
2022/08/27 09:35:20;;;;;;;2.47;1.05;;;;;;;19.75;55.71;101652.28;5005580;28;20124;-78
2022/08/27 09:37:50;;;;;;;4.38;1.15;;;;;;;19.82;54.16;101658.94;5004396;28;20040;-78
2022/08/27 09:40:15;;;;;;;2.67;1.10;;;;;;;19.82;53.60;101658.94;5002737;28;21587;-78
2022/08/27 09:42:51;;;;;;;2.58;1.13;;;;;;;19.76;53.78;101658.41;5004422;28;20684;-78
2022/08/27 09:45:28;;;;;;;2.70;0.90;;;;;;;19.60;53.74;101664.47;4982156;28;20034;-78
2022/08/27 09:48:13;;;;;;;3.58;1.17;;;;;;;19.49;56.03;101662.38;5005240;28;20033;-78
2022/08/27 09:50:46;;;;;;;5.10;1.30;;;;;;;19.40;55.65;101662.84;5003185;28;20049;-77
2022/08/27 09:53:19;;;;;;;2.50;1.20;;;;;;;19.30;54.86;101656.34;5002202;28;20554;-78
2022/08/27 09:55:53;;;;;;;3.05;1.10;;;;;;;19.21;55.49;101658.50;5004848;28;20037;-78
2022/08/27 09:58:31;;;;;;;2.58;1.10;;;;;;;19.22;55.53;101654.94;5005238;28;20044;-78
2022/08/27 10:01:06;;;;;;;4.03;1.20;;;;;;;19.29;55.73;101657.28;5003904;28;20118;-78
2022/08/27 10:03:32;;;;;;;2.83;1.20;;;;;;;19.35;53.30;101660.47;5004042;28;20120;-78
2022/08/27 10:05:57;;;;;;;3.45;1.10;;;;;;;19.38;53.03;101651.53;5003401;28;20160;-79
2022/08/27 10:08:27;;;;;;;1.48;0.90;;;;;;;19.38;53.16;101647.13;5003812;28;20113;-78
2022/08/27 10:11:03;;;;;;;3.05;1.20;;;;;;;19.50;55.06;101658.81;5006677;28;20063;-78
2022/08/27 10:13:35;;;;;;;3.13;0.98;;;;;;;19.54;52.83;101655.09;5005980;28;20041;-78
2022/08/27 10:16:38;;;;;;;3.33;1.10;;;;;;;19.53;55.00;101649.91;5004798;28;20029;-78
2022/08/27 10:19:31;;;;;;;4.10;1.00;;;;;;;19.58;53.89;101654.94;4999155;28;20468;-78
2022/08/27 10:22:11;;;;;;;2.42;0.93;;;;;;;19.61;53.46;101655.63;5003392;28;20373;-78
2022/08/27 10:24:39;;;;;;;4.35;1.10;;;;;;;19.64;53.10;101652.84;5004625;28;20034;-78
2022/08/27 10:27:27;;;;;;;2.13;0.90;;;;;;;19.73;53.76;101648.03;5006683;28;20034;-78
2022/08/27 10:30:08;;;;;;;2.08;0.90;;;;;;;19.83;53.96;101649.25;5002848;28;20045;-78
2022/08/27 10:32:33;;;;;;;3.60;1.10;;;;;;;19.87;52.14;101653.47;5004748;28;20068;-79
2022/08/27 10:35:20;;;;;;;3.80;1.30;;;;;;;19.94;53.24;101656.66;5001820;28;20121;-78
2022/08/27 10:37:51;;;;;;;1.55;0.90;;;;;;;19.97;52.31;101657.34;5001184;28;20165;-78
2022/08/27 10:40:40;;;;;;;2.22;0.80;;;;;;;20.04;54.33;101652.56;5001034;28;20083;-78
2022/08/27 10:43:15;;;;;;;2.53;0.90;;;;;;;20.07;52.71;101646.31;5002512;28;20037;-78
2022/08/27 10:45:58;;;;;;;3.33;0.90;;;;;;;20.06;51.26;101650.72;4984888;28;20037;-79
2022/08/27 10:48:35;;;;;;;2.53;0.90;;;;;;;20.12;51.69;101652.16;4998420;28;20034;-78
2022/08/27 10:51:17;;;;;;;2.67;0.90;;;;;;;20.12;52.73;101637.19;4999887;28;20102;-78
2022/08/27 10:54:05;;;;;;;2.80;1.00;;;;;;;20.12;52.73;101649.53;5000877;28;20033;-78
2022/08/27 10:56:50;;;;;;;2.08;0.90;;;;;;;20.13;52.48;101641.53;5000203;28;20041;-79
2022/08/27 10:59:24;;;;;;;19.58;1.50;;;;;;;20.19;52.31;101644.75;5000087;28;20029;-78
2022/08/27 11:02:06;;;;;;;2.53;0.90;;;;;;;20.24;52.61;101635.66;5001499;28;20040;-78
2022/08/27 11:04:38;;;;;;;2.28;0.80;;;;;;;20.28;51.33;101633.72;5003140;28;20079;-78
2022/08/27 11:07:10;;;;;;;2.15;0.80;;;;;;;20.28;50.27;101631.06;5004055;28;20401;-78
2022/08/27 11:09:45;;;;;;;2.08;0.90;;;;;;;20.35;51.23;101640.34;5002558;28;20033;-78
2022/08/27 11:12:20;;;;;;;2.42;1.00;;;;;;;20.39;49.71;101641.06;5004994;28;20034;-78
2022/08/27 11:14:50;;;;;;;3.15;0.90;;;;;;;20.39;49.19;101636.63;5003299;28;20598;-78
2022/08/27 11:17:37;;;;;;;2.35;0.95;;;;;;;20.51;52.13;101639.50;5004797;28;20029;-78
2022/08/27 11:20:07;;;;;;;3.15;0.90;;;;;;;20.59;48.71;101634.66;5004535;28;20087;-78
2022/08/27 11:22:39;;;;;;;2.47;0.82;;;;;;;20.68;51.65;101639.44;5003233;28;20520;-78
2022/08/27 11:25:23;;;;;;;1.80;1.00;;;;;;;20.77;47.50;101630.16;5005954;28;20048;-78
2022/08/27 11:27:52;;;;;;;2.10;0.88;;;;;;;20.79;48.27;101630.09;5003465;28;20121;-78
2022/08/27 11:30:25;;;;;;;4.35;1.15;;;;;;;20.87;52.72;101630.50;5004276;28;20041;-78
2022/08/27 11:33:06;;;;;;;2.00;0.85;;;;;;;20.88;50.03;101629.56;5004123;28;20731;-78
2022/08/27 11:36:03;;;;;;;2.17;0.95;;;;;;;20.93;51.47;101625.69;5005120;28;20037;-78
2022/08/27 11:38:31;;;;;;;4.55;0.90;;;;;;;20.91;48.90;101626.75;5001812;28;20107;-78